createdAt,value
2017-10-20T00:01:27.932Z,10.12
2017-10-20T00:03:54.216Z,10.06
2017-10-20T00:06:20.553Z,10.04
2017-10-20T00:08:46.875Z,10.07
2017-10-20T00:11:13.214Z,10.08
2017-10-20T00:13:39.557Z,10.08
2017-10-20T00:16:05.860Z,10.03
2017-10-20T00:18:32.205Z,9.89
2017-10-20T00:20:58.522Z,9.79
2017-10-20T00:23:24.870Z,9.80
2017-10-20T00:25:51.199Z,9.79
2017-10-20T00:28:17.651Z,9.84
2017-10-20T00:30:43.977Z,9.80
2017-10-20T00:33:10.304Z,9.80
2017-10-20T00:35:36.642Z,9.79
2017-10-20T00:38:02.903Z,9.81
2017-10-20T00:40:29.190Z,9.74
2017-10-20T00:42:55.528Z,9.69
2017-10-20T00:45:21.857Z,9.61
2017-10-20T00:47:48.201Z,9.53
2017-10-20T00:50:14.518Z,9.57
2017-10-20T00:52:40.862Z,9.61
2017-10-20T00:55:07.295Z,9.60
2017-10-20T00:57:33.623Z,9.59
2017-10-20T00:59:59.934Z,9.56
2017-10-20T01:02:26.274Z,9.54
2017-10-20T01:04:52.638Z,9.50
2017-10-20T01:07:18.954Z,9.48
2017-10-20T01:09:45.278Z,9.37
2017-10-20T01:12:11.668Z,9.27
2017-10-20T01:14:37.945Z,9.28
2017-10-20T01:17:04.288Z,9.24
2017-10-20T01:19:30.609Z,9.13
2017-10-20T01:21:56.923Z,9.08
2017-10-20T01:24:23.163Z,9.03
2017-10-20T01:26:49.516Z,8.97
2017-10-20T01:29:15.836Z,8.98
2017-10-20T01:31:42.194Z,9.00
2017-10-20T01:34:08.491Z,8.98
2017-10-20T01:36:34.837Z,9.04
2017-10-20T01:39:01.184Z,9.04
2017-10-20T01:41:27.476Z,9.00
2017-10-20T01:43:53.835Z,8.89
2017-10-20T01:46:20.149Z,8.82
2017-10-20T01:48:46.488Z,8.83
2017-10-20T01:51:12.816Z,8.98
2017-10-20T01:53:39.149Z,8.99
2017-10-20T01:56:05.490Z,9.01
2017-10-20T01:58:31.829Z,8.94
2017-10-20T02:00:58.157Z,8.98
2017-10-20T02:03:24.481Z,8.94
2017-10-20T02:05:50.807Z,8.98
2017-10-20T02:08:17.142Z,8.94
2017-10-20T02:10:43.483Z,8.92
2017-10-20T02:13:09.815Z,8.91
2017-10-20T02:15:36.164Z,8.88
2017-10-20T02:18:02.499Z,8.96
2017-10-20T02:20:28.801Z,8.96
2017-10-20T02:22:55.138Z,8.89
2017-10-20T02:25:21.479Z,8.87
2017-10-20T02:27:47.827Z,8.82
2017-10-20T02:30:14.124Z,8.69
2017-10-20T02:32:40.473Z,8.70
2017-10-20T02:35:06.810Z,8.65
2017-10-20T02:37:33.117Z,8.64
2017-10-20T02:39:59.462Z,8.66
2017-10-20T02:42:25.788Z,8.69
2017-10-20T02:44:52.117Z,8.72
2017-10-20T02:47:18.473Z,8.71
2017-10-20T02:49:45.417Z,8.75
2017-10-20T02:52:11.747Z,8.80
2017-10-20T02:54:38.038Z,8.86
2017-10-20T02:57:04.459Z,8.88
2017-10-20T02:59:30.748Z,8.83
2017-10-20T03:01:57.085Z,8.77
2017-10-20T03:04:23.397Z,8.62
2017-10-20T03:06:49.742Z,8.48
2017-10-20T03:09:16.054Z,8.46
2017-10-20T03:11:42.307Z,8.46
2017-10-20T03:14:08.628Z,8.58
2017-10-20T03:16:34.952Z,8.53
2017-10-20T03:19:01.301Z,8.48
2017-10-20T03:21:27.613Z,8.43
2017-10-20T03:23:53.942Z,8.54
2017-10-20T03:26:20.295Z,8.44
2017-10-20T03:28:46.609Z,8.43
2017-10-20T03:31:12.969Z,8.42
2017-10-20T03:33:39.271Z,8.39
2017-10-20T03:36:05.628Z,8.24
2017-10-20T03:38:31.952Z,8.12
2017-10-20T03:40:58.282Z,8.09
2017-10-20T03:43:24.618Z,8.03
2017-10-20T03:45:50.939Z,7.97
2017-10-20T03:48:17.284Z,7.94
2017-10-20T03:50:43.613Z,7.96
2017-10-20T03:53:09.962Z,7.96
2017-10-20T03:55:36.263Z,8.00
2017-10-20T03:58:02.619Z,7.95
2017-10-20T04:00:28.944Z,7.98
2017-10-20T04:02:55.265Z,7.95
2017-10-20T04:05:21.609Z,8.03
2017-10-20T04:07:47.939Z,8.02
2017-10-20T04:10:14.253Z,8.01
2017-10-20T04:12:40.595Z,8.10
2017-10-20T04:15:06.948Z,8.23
2017-10-20T04:17:33.297Z,8.26
2017-10-20T04:19:59.600Z,8.32
2017-10-20T04:22:25.887Z,8.43
2017-10-20T04:24:52.142Z,8.43
2017-10-20T04:27:18.498Z,8.38
2017-10-20T04:29:44.831Z,8.34
2017-10-20T04:32:11.162Z,8.23
2017-10-20T04:34:37.491Z,8.25
2017-10-20T04:37:04.680Z,8.31
2017-10-20T04:39:30.986Z,8.29
2017-10-20T04:41:57.296Z,8.07
2017-10-20T04:44:23.654Z,7.99
2017-10-20T04:46:50.074Z,8.00
2017-10-20T04:49:16.408Z,8.07
2017-10-20T04:51:42.743Z,8.09
2017-10-20T04:54:09.061Z,8.16
2017-10-20T04:56:35.402Z,8.25
2017-10-20T04:59:01.731Z,8.39
2017-10-20T05:01:27.957Z,8.43
2017-10-20T05:03:54.307Z,8.53
2017-10-20T05:06:20.541Z,8.72
2017-10-20T05:08:46.803Z,8.89
2017-10-20T05:11:13.160Z,9.01
2017-10-20T05:13:39.420Z,9.06
2017-10-20T05:16:05.750Z,9.09
2017-10-20T05:18:32.087Z,9.23
2017-10-20T05:20:58.407Z,9.41
2017-10-20T05:23:25.407Z,9.38
2017-10-20T05:25:51.688Z,9.70
2017-10-20T05:28:18.019Z,10.76
2017-10-20T05:30:44.363Z,12.08
2017-10-20T05:33:10.758Z,13.42
2017-10-20T05:35:37.114Z,14.38
2017-10-20T05:38:03.481Z,15.52
2017-10-20T05:40:29.748Z,16.27
2017-10-20T05:43:02.901Z,16.95
2017-10-20T05:45:29.130Z,17.88
2017-10-20T05:47:55.426Z,18.48
2017-10-20T05:50:21.691Z,18.76
2017-10-20T05:52:47.948Z,18.96
2017-10-20T05:55:14.228Z,19.09
2017-10-20T05:57:40.577Z,19.19
2017-10-20T06:00:06.811Z,19.40
2017-10-20T06:02:33.054Z,19.80
2017-10-20T06:04:59.304Z,18.74
2017-10-20T06:07:25.586Z,17.98
2017-10-20T06:09:51.850Z,19.08
2017-10-20T06:12:18.117Z,20.12
2017-10-20T06:14:44.349Z,20.22
2017-10-20T06:17:10.579Z,18.74
2017-10-20T06:19:36.856Z,18.65
2017-10-20T06:22:03.100Z,19.03
2017-10-20T06:24:29.337Z,17.68
2017-10-20T06:26:55.566Z,17.79
2017-10-20T06:29:21.805Z,17.20
2017-10-20T06:31:48.074Z,17.22
2017-10-20T06:34:14.320Z,19.06
2017-10-20T06:36:40.544Z,20.80
2017-10-20T06:39:06.800Z,22.05
2017-10-20T06:41:33.054Z,23.04
2017-10-20T06:43:59.339Z,23.44
2017-10-20T06:46:25.590Z,23.08
2017-10-20T06:48:51.830Z,22.22
2017-10-20T06:51:18.094Z,21.68
2017-10-20T06:53:44.360Z,20.78
2017-10-20T06:56:10.646Z,20.58
2017-10-20T06:58:36.896Z,20.96
2017-10-20T07:01:03.130Z,20.77
2017-10-20T07:03:29.391Z,22.10
2017-10-20T07:05:55.636Z,21.62
2017-10-20T07:08:21.950Z,22.14
2017-10-20T07:10:48.197Z,23.01
2017-10-20T07:13:14.458Z,23.60
2017-10-20T07:15:40.712Z,24.35
2017-10-20T07:18:06.983Z,24.26
2017-10-20T07:20:33.285Z,25.23
2017-10-20T07:22:59.544Z,25.66
2017-10-20T07:25:25.793Z,25.88
2017-10-20T07:27:52.055Z,25.71
2017-10-20T07:30:18.312Z,26.16
2017-10-20T07:32:44.619Z,26.28
2017-10-20T07:35:10.986Z,26.20
2017-10-20T07:37:37.234Z,26.31
2017-10-20T07:40:03.491Z,26.59
2017-10-20T07:42:29.770Z,27.09
2017-10-20T07:44:56.060Z,27.02
2017-10-20T07:47:22.301Z,27.60
2017-10-20T07:49:48.552Z,26.96
2017-10-20T07:52:14.780Z,27.34
2017-10-20T07:54:41.071Z,27.32
2017-10-20T07:57:07.344Z,27.70
2017-10-20T07:59:33.606Z,26.77
2017-10-20T08:01:59.854Z,27.39
2017-10-20T08:04:26.092Z,27.52
2017-10-20T08:06:53.131Z,27.58
2017-10-20T08:09:19.429Z,26.93
2017-10-20T08:11:45.666Z,28.11
2017-10-20T08:14:11.914Z,28.65
2017-10-20T08:16:38.182Z,28.97
2017-10-20T08:21:27.446Z,29.57
2017-10-20T08:23:53.707Z,29.98
2017-10-20T08:26:19.960Z,29.54
2017-10-20T08:28:46.214Z,29.44
2017-10-20T08:31:12.485Z,28.64
2017-10-20T08:33:38.753Z,29.02
2017-10-20T08:36:04.991Z,28.94
2017-10-20T08:38:31.236Z,29.57
2017-10-20T08:40:57.483Z,29.33
2017-10-20T08:43:23.739Z,29.90
2017-10-20T08:45:50.022Z,29.30
2017-10-20T08:48:16.322Z,29.83
2017-10-20T08:50:42.605Z,30.07
2017-10-20T08:53:08.894Z,29.78
2017-10-20T08:55:35.195Z,29.94
2017-10-20T08:58:01.554Z,30.12
2017-10-20T09:00:27.858Z,30.24
2017-10-20T09:02:54.188Z,30.83
2017-10-20T09:05:20.517Z,31.03
2017-10-20T09:07:46.850Z,31.23
2017-10-20T09:10:13.223Z,31.24
2017-10-20T09:12:39.508Z,31.41
2017-10-20T09:15:05.822Z,30.09
2017-10-20T09:17:32.126Z,30.65
2017-10-20T09:19:58.603Z,31.44
2017-10-20T09:22:24.986Z,31.13
2017-10-20T09:24:51.354Z,31.28
2017-10-20T09:27:17.680Z,31.13
2017-10-20T09:29:43.998Z,31.42
2017-10-20T09:32:10.281Z,31.29
2017-10-20T09:34:36.596Z,31.46
2017-10-20T09:37:02.908Z,31.67
2017-10-20T09:39:29.211Z,32.22
2017-10-20T09:41:55.525Z,32.06
2017-10-20T09:44:21.821Z,32.11
2017-10-20T09:46:48.142Z,32.53
2017-10-20T09:49:14.531Z,31.77
2017-10-20T09:51:40.875Z,31.73
2017-10-20T09:54:07.185Z,30.92
2017-10-20T09:56:33.465Z,30.46
2017-10-20T09:58:59.797Z,29.85
2017-10-20T10:01:26.082Z,29.71
2017-10-20T10:03:52.355Z,29.44
2017-10-20T10:06:18.684Z,30.11
2017-10-20T10:08:44.998Z,30.34
2017-10-20T10:11:11.355Z,30.11
2017-10-20T10:13:37.656Z,30.09
2017-10-20T10:16:04.025Z,30.07
2017-10-20T10:18:30.362Z,30.29
2017-10-20T10:20:56.715Z,30.72
2017-10-20T10:23:23.172Z,31.18
2017-10-20T10:25:49.462Z,31.18
2017-10-20T10:28:15.789Z,31.29
2017-10-20T10:30:42.089Z,30.66
2017-10-20T10:33:08.402Z,31.35
2017-10-20T10:35:34.744Z,31.88
2017-10-20T10:38:01.036Z,31.94
2017-10-20T10:40:27.333Z,31.36
2017-10-20T10:42:53.646Z,30.68
2017-10-20T10:45:19.930Z,30.81
2017-10-20T10:47:46.322Z,30.34
2017-10-20T10:50:12.636Z,30.04
2017-10-20T10:52:38.924Z,30.36
2017-10-20T10:55:05.208Z,30.67
2017-10-20T10:57:31.517Z,30.95
2017-10-20T10:59:57.854Z,31.46
2017-10-20T11:02:24.288Z,31.85
2017-10-20T11:04:50.606Z,31.70
2017-10-20T11:07:16.913Z,30.86
2017-10-20T11:09:43.199Z,31.12
2017-10-20T11:12:09.498Z,31.43
2017-10-20T11:14:35.887Z,31.83
2017-10-20T11:17:02.243Z,31.38
2017-10-20T11:19:28.549Z,31.12
2017-10-20T11:21:54.900Z,31.48
2017-10-20T11:24:21.446Z,31.99
2017-10-20T11:26:47.826Z,31.96
2017-10-20T11:29:14.129Z,31.84
2017-10-20T11:31:40.432Z,31.52
2017-10-20T11:34:06.830Z,31.92
2017-10-20T11:36:33.116Z,31.66
2017-10-20T11:38:59.538Z,31.88
2017-10-20T11:41:25.848Z,31.47
2017-10-20T11:43:52.151Z,31.08
2017-10-20T11:46:18.452Z,31.48
2017-10-20T11:48:44.751Z,31.70
2017-10-20T11:53:27.078Z,31.50
2017-10-20T11:55:53.353Z,32.09
2017-10-20T11:58:19.687Z,32.63
2017-10-20T12:00:45.981Z,32.20
2017-10-20T12:03:12.265Z,32.62
2017-10-20T12:05:38.584Z,32.68
2017-10-20T12:08:04.874Z,32.77
2017-10-20T12:10:31.308Z,32.88
2017-10-20T12:12:57.600Z,32.99
2017-10-20T12:15:23.920Z,33.35
2017-10-20T12:17:50.228Z,33.39
2017-10-20T12:20:16.505Z,33.63
2017-10-20T12:22:42.833Z,33.73
2017-10-20T12:25:09.158Z,34.50
2017-10-20T12:27:35.493Z,34.93
2017-10-20T12:30:01.824Z,34.38
2017-10-20T12:32:28.114Z,34.32
2017-10-20T12:34:54.414Z,35.20
2017-10-20T12:37:20.762Z,35.18
2017-10-20T12:39:47.096Z,35.11
2017-10-20T12:42:13.403Z,34.55
2017-10-20T12:44:39.733Z,34.42
2017-10-20T12:47:06.063Z,34.04
2017-10-20T12:49:32.400Z,33.98
2017-10-20T12:51:58.713Z,34.09
2017-10-20T12:54:25.043Z,33.67
2017-10-20T12:56:51.350Z,33.24
2017-10-20T12:59:17.638Z,33.24
2017-10-20T13:01:43.921Z,33.29
2017-10-20T13:04:10.184Z,33.51
2017-10-20T13:06:36.431Z,33.23
2017-10-20T13:09:02.702Z,33.28
2017-10-20T13:11:28.949Z,33.13
2017-10-20T13:13:55.172Z,33.10
2017-10-20T13:16:21.503Z,32.54
2017-10-20T13:18:47.740Z,33.09
2017-10-20T13:21:14.019Z,33.13
2017-10-20T13:23:40.246Z,32.49
2017-10-20T13:26:06.493Z,32.49
2017-10-20T13:28:32.719Z,32.65
2017-10-20T13:30:59.036Z,32.80
2017-10-20T13:33:25.329Z,32.72
2017-10-20T13:35:51.609Z,32.67
2017-10-20T13:38:17.982Z,32.27
2017-10-20T13:40:44.258Z,32.22
2017-10-20T13:43:10.520Z,32.55
2017-10-20T13:45:36.785Z,33.12
2017-10-20T13:48:03.127Z,33.00
2017-10-20T13:50:29.386Z,33.08
2017-10-20T13:52:55.615Z,33.02
2017-10-20T13:55:21.847Z,32.39
2017-10-20T13:57:48.163Z,32.48
2017-10-20T14:00:14.401Z,32.14
2017-10-20T14:02:40.642Z,31.85
2017-10-20T14:05:06.966Z,31.72
2017-10-20T14:07:33.226Z,31.26
2017-10-20T14:09:59.483Z,31.33
2017-10-20T14:12:25.847Z,31.08
2017-10-20T14:14:52.112Z,30.86
2017-10-20T14:17:18.386Z,31.25
2017-10-20T14:19:44.625Z,31.09
2017-10-20T14:22:10.874Z,31.57
2017-10-20T14:24:37.109Z,31.53
2017-10-20T14:27:03.354Z,31.94
2017-10-20T14:29:29.580Z,31.96
2017-10-20T14:31:55.816Z,31.66
2017-10-20T14:34:22.099Z,30.96
2017-10-20T14:36:48.343Z,29.96
2017-10-20T14:39:14.576Z,29.60
2017-10-20T14:41:40.841Z,28.99
2017-10-20T14:44:07.062Z,28.60
2017-10-20T14:46:33.362Z,28.79
2017-10-20T14:48:59.620Z,29.24
2017-10-20T14:51:25.918Z,29.75
2017-10-20T14:53:52.180Z,29.61
2017-10-20T14:56:18.406Z,29.11
2017-10-20T14:58:44.698Z,28.45
2017-10-20T15:01:10.956Z,27.70
2017-10-20T15:03:37.299Z,27.15
2017-10-20T15:06:04.205Z,26.70
2017-10-20T15:08:30.466Z,26.25
2017-10-20T15:10:56.791Z,25.85
2017-10-20T15:13:23.193Z,25.47
2017-10-20T15:15:49.481Z,25.15
2017-10-20T15:18:15.728Z,24.80
2017-10-20T15:20:42.104Z,24.45
2017-10-20T15:23:08.493Z,24.13
2017-10-20T15:25:34.791Z,23.90
2017-10-20T15:28:01.158Z,23.58
2017-10-20T15:30:27.461Z,23.29
2017-10-20T15:32:53.820Z,22.88
2017-10-20T15:35:20.156Z,22.68
2017-10-20T15:37:46.577Z,22.44
2017-10-20T15:40:12.911Z,22.27
2017-10-20T15:42:39.220Z,22.14
2017-10-20T15:45:05.490Z,21.97
2017-10-20T15:47:31.794Z,21.76
2017-10-20T15:49:58.090Z,21.59
2017-10-20T15:52:24.373Z,21.39
2017-10-20T15:54:50.697Z,21.12
2017-10-20T15:57:16.948Z,20.91
2017-10-20T15:59:43.211Z,20.77
2017-10-20T16:02:09.500Z,20.64
2017-10-20T16:04:35.756Z,20.49
2017-10-20T16:07:02.032Z,20.40
2017-10-20T16:09:28.309Z,20.24
2017-10-20T16:11:54.556Z,20.16
2017-10-20T16:14:20.882Z,20.03
2017-10-20T16:16:47.128Z,19.90
2017-10-20T16:19:13.385Z,19.72
2017-10-20T16:21:39.630Z,19.59
2017-10-20T16:24:05.873Z,19.48
2017-10-20T16:26:32.157Z,19.32
2017-10-20T16:28:58.445Z,19.24
2017-10-20T16:31:24.702Z,19.20
2017-10-20T16:33:50.942Z,19.12
2017-10-20T16:36:17.240Z,18.98
2017-10-20T16:38:43.568Z,18.93
2017-10-20T16:41:09.926Z,18.86
2017-10-20T16:43:36.174Z,18.80
2017-10-20T16:46:02.437Z,18.75
2017-10-20T16:48:28.721Z,18.69
2017-10-20T16:50:55.009Z,18.53
2017-10-20T16:53:21.273Z,18.42
2017-10-20T16:55:47.554Z,18.30
2017-10-20T16:58:13.845Z,18.21
2017-10-20T17:00:40.110Z,18.20
2017-10-20T17:03:06.437Z,18.04
2017-10-20T17:05:32.692Z,17.93
2017-10-20T17:07:59.021Z,17.91
2017-10-20T17:10:25.284Z,17.82
2017-10-20T17:12:51.546Z,17.68
2017-10-20T17:15:17.870Z,17.58
2017-10-20T17:17:44.227Z,17.60
2017-10-20T17:20:10.475Z,17.50
2017-10-20T17:22:36.733Z,17.41
2017-10-20T17:25:03.093Z,17.28
2017-10-20T17:27:29.398Z,17.17
2017-10-20T17:29:55.640Z,17.09
2017-10-20T17:32:21.905Z,17.01
2017-10-20T17:34:48.200Z,16.82
2017-10-20T17:37:14.501Z,16.78
2017-10-20T17:39:40.756Z,16.68
2017-10-20T17:42:07.046Z,16.55
2017-10-20T17:44:33.326Z,16.37
2017-10-20T17:46:59.575Z,16.21
2017-10-20T17:49:26.772Z,16.13
2017-10-20T17:51:53.092Z,16.03
2017-10-20T17:54:19.351Z,15.91
2017-10-20T17:56:45.645Z,15.92
2017-10-20T17:59:11.900Z,15.90
2017-10-20T18:01:38.187Z,15.82
2017-10-20T18:04:04.444Z,15.66
2017-10-20T18:06:30.743Z,15.58
2017-10-20T18:08:57.011Z,15.46
2017-10-20T18:11:23.267Z,15.40
2017-10-20T18:13:49.566Z,15.28
2017-10-20T18:16:15.814Z,15.18
2017-10-20T18:18:42.096Z,15.09
2017-10-20T18:21:08.431Z,14.99
2017-10-20T18:23:34.749Z,14.89
2017-10-20T18:26:01.048Z,14.83
2017-10-20T18:28:27.362Z,14.87
2017-10-20T18:30:53.608Z,14.72
2017-10-20T18:33:19.862Z,14.53
2017-10-20T18:35:46.105Z,14.55
2017-10-20T18:38:12.413Z,14.57
2017-10-20T18:40:38.709Z,14.53
2017-10-20T18:43:04.964Z,14.40
2017-10-20T18:45:31.281Z,14.30
2017-10-20T18:47:58.372Z,14.23
2017-10-20T18:50:24.773Z,14.11
2017-10-20T18:52:51.058Z,14.05
2017-10-20T18:55:17.305Z,14.12
2017-10-20T18:57:43.558Z,14.10
2017-10-20T19:00:09.827Z,14.14
2017-10-20T19:02:36.139Z,14.12
2017-10-20T19:05:02.412Z,14.08
2017-10-20T19:07:28.667Z,14.04
2017-10-20T19:09:54.960Z,14.04
2017-10-20T19:12:21.239Z,13.97
2017-10-20T19:14:47.554Z,13.98
2017-10-20T19:17:13.821Z,13.98
2017-10-20T19:19:40.105Z,13.86
2017-10-20T19:22:06.327Z,13.73
2017-10-20T19:24:32.558Z,13.58
2017-10-20T19:26:58.844Z,13.53
2017-10-20T19:29:25.129Z,13.62
2017-10-20T19:31:51.402Z,13.61
2017-10-20T19:34:17.680Z,13.55
2017-10-20T19:36:47.836Z,13.45
2017-10-20T19:39:14.162Z,13.39
2017-10-20T19:41:40.429Z,13.31
2017-10-20T19:44:06.666Z,13.25
2017-10-20T19:46:32.928Z,13.17
2017-10-20T19:48:59.187Z,13.08
2017-10-20T19:51:25.474Z,13.01
2017-10-20T19:53:52.314Z,12.87
2017-10-20T19:56:18.585Z,12.77
2017-10-20T19:58:45.794Z,12.70
2017-10-20T20:01:12.051Z,12.66
2017-10-20T20:03:38.297Z,12.62
2017-10-20T20:06:04.588Z,12.51
2017-10-20T20:08:30.827Z,12.44
2017-10-20T20:10:57.251Z,12.41
2017-10-20T20:13:23.543Z,12.35
2017-10-20T20:15:49.804Z,12.33
2017-10-20T20:18:16.044Z,12.26
2017-10-20T20:20:42.292Z,12.25
2017-10-20T20:23:08.619Z,12.21
2017-10-20T20:25:34.864Z,12.14
2017-10-20T20:28:01.171Z,12.07
2017-10-20T20:30:27.440Z,12.06
2017-10-20T20:32:53.689Z,12.06
2017-10-20T20:35:20.018Z,12.05
2017-10-20T20:37:46.262Z,12.05
2017-10-20T20:40:12.500Z,11.95
2017-10-20T20:42:38.748Z,11.97
2017-10-20T20:45:05.026Z,11.95
2017-10-20T20:47:31.338Z,11.88
2017-10-20T20:49:57.583Z,11.87
2017-10-20T20:52:24.460Z,11.88
2017-10-20T20:54:50.737Z,11.85
2017-10-20T20:57:16.951Z,11.82
2017-10-20T20:59:43.235Z,11.75
2017-10-20T21:02:09.484Z,11.68
2017-10-20T21:04:35.748Z,11.56
2017-10-20T21:07:02.039Z,11.51
2017-10-20T21:09:29.290Z,11.50
2017-10-20T21:11:55.534Z,11.52
2017-10-20T21:14:21.787Z,11.57
2017-10-20T21:16:48.042Z,11.60
2017-10-20T21:19:14.311Z,11.64
2017-10-20T21:21:40.570Z,11.56
2017-10-20T21:24:07.692Z,11.54
2017-10-20T21:26:34.010Z,11.51
2017-10-20T21:29:00.250Z,11.45
2017-10-20T21:31:26.521Z,11.43
2017-10-20T21:33:52.746Z,11.43
2017-10-20T21:36:18.989Z,11.34
2017-10-20T21:38:45.228Z,11.30
2017-10-20T21:41:11.505Z,11.30
2017-10-20T21:43:37.771Z,11.13
2017-10-20T21:46:04.002Z,11.01
2017-10-20T21:48:30.228Z,11.08
2017-10-20T21:50:56.480Z,11.08
2017-10-20T21:53:22.729Z,11.09
2017-10-20T21:55:48.999Z,11.05
2017-10-20T21:58:15.222Z,11.01
2017-10-20T22:00:41.478Z,10.94
2017-10-20T22:03:07.691Z,10.85
2017-10-20T22:05:33.942Z,10.71
2017-10-20T22:08:00.220Z,10.66
2017-10-20T22:10:26.433Z,10.73
2017-10-20T22:12:52.657Z,10.71
2017-10-20T22:15:18.891Z,10.71
2017-10-20T22:17:45.135Z,10.63
2017-10-20T22:20:11.402Z,10.63
2017-10-20T22:22:37.649Z,10.59
2017-10-20T22:25:03.885Z,10.52
2017-10-20T22:27:30.123Z,10.39
2017-10-20T22:29:56.407Z,10.35
2017-10-20T22:32:22.666Z,10.34
2017-10-20T22:34:48.907Z,10.20
2017-10-20T22:37:15.154Z,10.18
2017-10-20T22:39:41.392Z,10.13
2017-10-20T22:42:07.622Z,10.20
2017-10-20T22:44:33.878Z,10.30
2017-10-20T22:47:00.124Z,10.30
2017-10-20T22:49:26.359Z,10.31
2017-10-20T22:51:52.596Z,10.29
2017-10-20T22:54:18.841Z,10.24
2017-10-20T22:56:45.117Z,10.12
2017-10-20T22:59:11.336Z,10.09
2017-10-20T23:01:37.555Z,10.04
2017-10-20T23:04:03.804Z,10.04
2017-10-20T23:06:30.060Z,10.08
2017-10-20T23:08:56.421Z,10.06
2017-10-20T23:11:22.654Z,10.06
2017-10-20T23:13:48.875Z,9.94
2017-10-20T23:16:15.096Z,9.92
2017-10-20T23:18:41.320Z,9.94
2017-10-20T23:21:07.591Z,10.00
2017-10-20T23:23:33.829Z,9.93
2017-10-20T23:26:00.072Z,9.93
2017-10-20T23:28:26.398Z,9.81
2017-10-20T23:30:52.634Z,9.81
2017-10-20T23:33:18.959Z,9.76
2017-10-20T23:35:45.292Z,9.66
2017-10-20T23:38:11.623Z,9.71
2017-10-20T23:40:37.952Z,9.64
2017-10-20T23:43:04.270Z,9.64
2017-10-20T23:45:30.615Z,9.53
2017-10-20T23:47:56.930Z,9.50
2017-10-20T23:50:23.179Z,9.48
2017-10-20T23:52:49.522Z,9.50
2017-10-20T23:55:15.848Z,9.48
2017-10-20T23:57:42.184Z,9.49
